createdAt,value
2019-05-18T00:01:28.440Z,55.30
2019-05-18T00:03:01.048Z,55.30
2019-05-18T00:04:35.731Z,55.30
2019-05-18T00:06:08.165Z,55.50
2019-05-18T00:07:41.031Z,55.50
2019-05-18T00:09:13.518Z,55.50
2019-05-18T00:10:45.896Z,55.60
2019-05-18T00:12:18.432Z,55.60
2019-05-18T00:13:50.871Z,55.70
2019-05-18T00:15:23.285Z,55.80
2019-05-18T00:16:55.780Z,55.80
2019-05-18T00:18:28.222Z,55.80
2019-05-18T00:20:00.649Z,55.80
2019-05-18T00:21:33.337Z,55.90
2019-05-18T00:23:05.849Z,55.90
2019-05-18T00:24:38.261Z,55.80
2019-05-18T00:26:10.693Z,56.00
2019-05-18T00:27:43.114Z,56.00
2019-05-18T00:29:15.612Z,56.10
2019-05-18T00:30:48.035Z,56.10
2019-05-18T00:32:20.503Z,56.20
2019-05-18T00:33:52.975Z,56.30
2019-05-18T00:35:25.458Z,56.40
2019-05-18T00:36:57.795Z,56.50
2019-05-18T00:38:30.140Z,56.70
2019-05-18T00:40:02.568Z,56.70
2019-05-18T00:41:34.948Z,56.90
2019-05-18T00:43:07.459Z,57.00
2019-05-18T00:44:39.951Z,57.10
2019-05-18T00:46:12.473Z,57.10
2019-05-18T00:47:44.875Z,57.30
2019-05-18T00:49:17.363Z,57.30
2019-05-18T00:50:49.864Z,57.40
2019-05-18T00:52:22.290Z,57.50
2019-05-18T00:53:54.812Z,57.60
2019-05-18T00:55:27.280Z,57.70
2019-05-18T00:56:59.715Z,57.80
2019-05-18T00:58:32.268Z,57.90
2019-05-18T01:00:04.833Z,58.00
2019-05-18T01:01:37.336Z,58.10
2019-05-18T01:03:09.779Z,58.20
2019-05-18T01:04:42.217Z,58.40
2019-05-18T01:06:14.635Z,58.40
2019-05-18T01:07:47.039Z,58.40
2019-05-18T01:09:19.515Z,58.60
2019-05-18T01:10:51.963Z,58.60
2019-05-18T01:12:24.448Z,58.60
2019-05-18T01:13:56.917Z,58.70
2019-05-18T01:15:29.274Z,58.70
2019-05-18T01:17:01.777Z,58.70
2019-05-18T01:18:34.250Z,58.70
2019-05-18T01:20:06.660Z,58.70
2019-05-18T01:21:39.163Z,58.80
2019-05-18T01:23:11.568Z,58.90
2019-05-18T01:24:44.028Z,58.90
2019-05-18T01:26:16.520Z,58.90
2019-05-18T01:27:48.959Z,59.00
2019-05-18T01:29:21.378Z,59.00
2019-05-18T01:30:53.957Z,59.00
2019-05-18T01:32:26.383Z,59.10
2019-05-18T01:33:58.836Z,59.10
2019-05-18T01:35:31.321Z,59.10
2019-05-18T01:37:03.822Z,59.10
2019-05-18T01:38:36.238Z,59.20
2019-05-18T01:40:08.735Z,59.90
2019-05-18T01:41:41.159Z,59.30
2019-05-18T01:43:13.604Z,59.40
2019-05-18T01:44:46.098Z,59.40
2019-05-18T01:46:18.436Z,59.50
2019-05-18T01:47:50.863Z,59.60
2019-05-18T01:49:26.331Z,59.70
2019-05-18T01:50:58.959Z,59.70
2019-05-18T01:52:31.376Z,59.80
2019-05-18T01:54:03.901Z,59.90
2019-05-18T01:55:36.309Z,60.00
2019-05-18T01:57:08.648Z,60.00
2019-05-18T01:58:41.139Z,60.10
2019-05-18T02:00:13.614Z,60.20
2019-05-18T02:01:46.041Z,60.10
2019-05-18T02:03:18.449Z,60.10
2019-05-18T02:04:50.933Z,60.20
2019-05-18T02:06:23.472Z,60.10
2019-05-18T02:07:55.949Z,60.10
2019-05-18T02:09:28.430Z,60.10
2019-05-18T02:11:00.767Z,60.10
2019-05-18T02:12:33.267Z,60.20
2019-05-18T02:14:05.736Z,60.20
2019-05-18T02:15:38.127Z,60.20
2019-05-18T02:17:10.519Z,60.20
2019-05-18T02:18:42.925Z,60.20
2019-05-18T02:20:15.350Z,60.20
2019-05-18T02:21:47.815Z,60.10
2019-05-18T02:23:20.236Z,60.20
2019-05-18T02:24:52.630Z,60.20
2019-05-18T02:26:25.116Z,60.20
2019-05-18T02:27:57.592Z,60.20
2019-05-18T02:29:29.992Z,60.30
2019-05-18T02:31:02.354Z,60.30
2019-05-18T02:32:34.868Z,60.30
2019-05-18T02:34:07.368Z,60.30
2019-05-18T02:35:39.837Z,60.30
2019-05-18T02:37:12.371Z,60.40
2019-05-18T02:38:44.833Z,60.40
2019-05-18T02:40:17.293Z,60.40
2019-05-18T02:41:49.707Z,60.50
2019-05-18T02:43:22.233Z,60.50
2019-05-18T02:44:54.726Z,60.50
2019-05-18T02:46:27.218Z,60.60
2019-05-18T02:47:59.636Z,60.80
2019-05-18T02:49:32.047Z,60.80
2019-05-18T02:51:04.569Z,61.10
2019-05-18T02:52:37.009Z,61.10
2019-05-18T02:54:09.481Z,61.20
2019-05-18T02:55:41.924Z,61.40
2019-05-18T02:57:14.361Z,61.40
2019-05-18T02:58:47.056Z,61.50
2019-05-18T03:00:19.472Z,61.70
2019-05-18T03:01:51.826Z,61.70
2019-05-18T03:03:24.334Z,61.80
2019-05-18T03:04:56.907Z,61.80
2019-05-18T03:06:29.475Z,61.80
2019-05-18T03:08:01.916Z,62.00
2019-05-18T03:09:34.393Z,62.00
2019-05-18T03:11:06.803Z,62.10
2019-05-18T03:12:39.299Z,62.20
2019-05-18T03:14:12.404Z,62.30
2019-05-18T03:15:44.811Z,62.30
2019-05-18T03:17:17.236Z,62.30
2019-05-18T03:19:06.927Z,62.40
2019-05-18T03:20:23.862Z,62.40
2019-05-18T03:22:00.225Z,62.60
2019-05-18T03:23:30.428Z,62.60
2019-05-18T03:25:02.903Z,62.60
2019-05-18T03:26:35.371Z,62.60
2019-05-18T03:28:07.840Z,62.70
2019-05-18T03:29:40.296Z,62.70
2019-05-18T03:31:12.771Z,62.80
2019-05-18T03:32:45.241Z,62.90
2019-05-18T03:34:17.683Z,62.90
2019-05-18T03:35:50.162Z,62.90
2019-05-18T03:37:22.649Z,63.00
2019-05-18T03:38:58.023Z,63.10
2019-05-18T03:40:30.458Z,63.10
2019-05-18T03:42:03.793Z,63.10
2019-05-18T03:43:36.200Z,63.10
2019-05-18T03:45:08.690Z,63.20
2019-05-18T03:46:41.199Z,63.10
2019-05-18T03:48:13.649Z,63.10
2019-05-18T03:49:46.117Z,63.20
2019-05-18T03:51:18.634Z,63.30
2019-05-18T03:52:51.080Z,63.30
2019-05-18T03:54:23.566Z,63.40
2019-05-18T03:55:55.986Z,63.50
2019-05-18T03:57:28.475Z,63.40
2019-05-18T03:59:00.882Z,63.40
2019-05-18T04:00:33.372Z,63.40
2019-05-18T04:02:05.820Z,63.50
2019-05-18T04:03:38.349Z,63.50
2019-05-18T04:05:10.846Z,63.60
2019-05-18T04:06:43.266Z,63.70
2019-05-18T04:08:15.777Z,63.60
2019-05-18T04:09:48.196Z,63.60
2019-05-18T04:11:20.613Z,63.60
2019-05-18T04:12:53.254Z,63.70
2019-05-18T04:14:25.852Z,63.70
2019-05-18T04:15:58.219Z,63.70
2019-05-18T04:17:31.408Z,63.60
2019-05-18T04:19:04.067Z,63.60
2019-05-18T04:20:36.525Z,63.70
2019-05-18T04:22:09.115Z,63.60
2019-05-18T04:23:41.626Z,63.60
2019-05-18T04:25:14.110Z,63.60
2019-05-18T04:26:46.801Z,63.60
2019-05-18T04:28:19.691Z,63.50
2019-05-18T04:29:52.163Z,63.50
2019-05-18T04:31:24.772Z,63.40
2019-05-18T04:32:57.501Z,63.40
2019-05-18T04:34:29.924Z,63.20
2019-05-18T04:36:02.473Z,63.20
2019-05-18T04:37:35.065Z,63.20
2019-05-18T04:39:07.505Z,63.20
2019-05-18T04:40:39.987Z,63.20
2019-05-18T04:42:12.501Z,63.10
2019-05-18T04:43:44.930Z,63.00
2019-05-18T04:45:17.711Z,63.00
2019-05-18T04:46:50.309Z,63.00
2019-05-18T04:48:22.720Z,62.90
2019-05-18T04:50:05.249Z,62.90
2019-05-18T04:51:29.362Z,62.90
2019-05-18T04:53:01.766Z,62.90
2019-05-18T04:54:34.187Z,62.90
2019-05-18T04:56:06.787Z,62.90
2019-05-18T04:57:39.242Z,62.80
2019-05-18T04:59:12.093Z,62.80
2019-05-18T05:00:45.175Z,62.90
2019-05-18T05:02:17.625Z,62.90
2019-05-18T05:03:50.227Z,62.90
2019-05-18T05:05:22.856Z,63.00
2019-05-18T05:06:55.335Z,63.00
2019-05-18T05:08:28.166Z,63.00
2019-05-18T05:10:00.721Z,63.00
2019-05-18T05:11:33.120Z,63.10
2019-05-18T05:13:05.670Z,63.20
2019-05-18T05:14:38.221Z,63.20
2019-05-18T05:16:10.699Z,63.20
2019-05-18T05:17:43.278Z,63.30
2019-05-18T05:19:15.837Z,63.30
2019-05-18T05:20:48.648Z,63.50
2019-05-18T05:22:21.366Z,63.50
2019-05-18T05:23:53.875Z,63.60
2019-05-18T05:25:26.267Z,63.70
2019-05-18T05:26:58.671Z,63.80
2019-05-18T05:28:32.883Z,63.90
2019-05-18T05:30:05.290Z,63.90
2019-05-18T05:31:37.780Z,64.00
2019-05-18T05:33:10.283Z,64.10
2019-05-18T05:34:42.887Z,64.10
2019-05-18T05:36:15.504Z,64.40
2019-05-18T05:37:48.405Z,64.30
2019-05-18T05:39:21.012Z,64.40
2019-05-18T05:40:53.936Z,64.40
2019-05-18T05:42:27.288Z,65.20
2019-05-18T05:43:59.744Z,64.50
2019-05-18T05:45:32.215Z,64.50
2019-05-18T05:47:04.683Z,64.50
2019-05-18T05:48:37.145Z,64.50
2019-05-18T05:50:09.616Z,64.60
2019-05-18T05:51:42.156Z,64.60
2019-05-18T05:53:14.521Z,64.60
2019-05-18T05:54:47.039Z,64.70
2019-05-18T05:56:19.639Z,64.70
2019-05-18T05:57:51.978Z,64.70
2019-05-18T05:59:24.564Z,64.70
2019-05-18T06:00:57.213Z,64.70
2019-05-18T06:02:29.739Z,64.80
2019-05-18T06:04:02.516Z,64.80
2019-05-18T06:05:35.443Z,64.80
2019-05-18T06:07:08.178Z,64.80
2019-05-18T06:08:40.705Z,64.80
2019-05-18T06:10:15.370Z,64.80
2019-05-18T06:11:47.980Z,64.80
2019-05-18T06:13:20.431Z,64.80
2019-05-18T06:14:52.844Z,64.70
2019-05-18T06:16:25.356Z,64.80
2019-05-18T06:18:00.351Z,64.70
2019-05-18T06:19:33.285Z,64.70
2019-05-18T06:21:05.754Z,64.70
2019-05-18T06:22:38.255Z,64.60
2019-05-18T06:24:10.822Z,64.60
2019-05-18T06:25:43.375Z,64.50
2019-05-18T06:27:18.203Z,64.50
2019-05-18T06:28:50.683Z,64.40
2019-05-18T06:30:23.402Z,64.40
2019-05-18T06:31:55.830Z,64.40
2019-05-18T06:33:28.473Z,64.40
2019-05-18T06:35:01.046Z,64.40
2019-05-18T06:36:33.612Z,64.30
2019-05-18T06:38:06.215Z,64.20
2019-05-18T06:39:38.664Z,64.20
2019-05-18T06:41:11.156Z,64.20
2019-05-18T06:42:43.763Z,64.20
2019-05-18T06:44:16.188Z,64.10
2019-05-18T06:45:48.610Z,64.10
2019-05-18T06:47:21.093Z,64.10
2019-05-18T06:48:53.538Z,63.90
2019-05-18T06:50:26.020Z,63.90
2019-05-18T06:51:58.435Z,63.80
2019-05-18T06:53:30.863Z,63.90
2019-05-18T06:55:03.307Z,63.70
2019-05-18T06:56:35.802Z,63.60
2019-05-18T06:58:08.251Z,63.60
2019-05-18T06:59:40.723Z,63.60
2019-05-18T07:01:13.208Z,63.50
2019-05-18T07:02:45.639Z,63.50
2019-05-18T07:04:18.156Z,63.30
2019-05-18T07:05:50.669Z,63.30
2019-05-18T07:07:23.076Z,63.30
2019-05-18T07:08:55.614Z,63.20
2019-05-18T07:10:28.035Z,63.20
2019-05-18T07:12:00.523Z,63.10
2019-05-18T07:13:33.077Z,63.20
2019-05-18T07:15:05.544Z,62.90
2019-05-18T07:16:37.870Z,62.90
2019-05-18T07:18:10.566Z,62.70
2019-05-18T07:19:42.995Z,62.70
2019-05-18T07:21:22.150Z,62.60
2019-05-18T07:22:49.514Z,62.60
2019-05-18T07:24:22.031Z,62.50
2019-05-18T07:25:54.489Z,62.30
2019-05-18T07:27:26.962Z,62.20
2019-05-18T07:28:59.343Z,62.10
2019-05-18T07:30:31.993Z,62.00
2019-05-18T07:32:04.500Z,62.00
2019-05-18T07:33:37.338Z,61.90
2019-05-18T07:35:09.756Z,61.70
2019-05-18T07:36:42.271Z,61.60
2019-05-18T07:38:14.741Z,61.60
2019-05-18T07:39:47.115Z,61.40
2019-05-18T07:41:19.613Z,61.30
2019-05-18T07:42:52.662Z,61.30
2019-05-18T07:44:25.102Z,61.20
2019-05-18T07:45:57.599Z,61.30
2019-05-18T07:47:30.083Z,61.10
2019-05-18T07:49:02.454Z,61.00
2019-05-18T07:50:34.952Z,60.90
2019-05-18T07:52:07.432Z,60.90
2019-05-18T07:53:39.912Z,60.80
2019-05-18T07:55:12.430Z,60.70
2019-05-18T07:56:45.049Z,60.60
2019-05-18T07:58:17.523Z,60.50
2019-05-18T07:59:49.998Z,60.50
2019-05-18T08:01:30.545Z,60.40
2019-05-18T08:03:22.737Z,60.30
2019-05-18T08:05:04.649Z,60.20
2019-05-18T08:06:37.152Z,60.10
2019-05-18T08:08:09.559Z,60.10
2019-05-18T08:09:42.027Z,60.10
2019-05-18T08:11:14.475Z,59.90
2019-05-18T08:12:46.960Z,59.80
2019-05-18T08:14:19.678Z,59.70
2019-05-18T08:15:52.047Z,59.70
2019-05-18T08:17:24.456Z,59.50
2019-05-18T08:18:58.194Z,59.40
2019-05-18T08:20:30.988Z,59.30
2019-05-18T08:22:03.686Z,59.30
2019-05-18T08:23:36.079Z,59.20
2019-05-18T08:25:13.091Z,59.10
2019-05-18T08:26:45.566Z,59.00
2019-05-18T08:28:17.984Z,59.10
2019-05-18T08:29:50.490Z,58.90
2019-05-18T08:31:22.980Z,58.90
2019-05-18T08:32:55.553Z,58.80
2019-05-18T08:34:27.971Z,58.70
2019-05-18T08:36:00.476Z,58.70
2019-05-18T08:37:32.833Z,58.60
2019-05-18T08:39:05.575Z,58.50
2019-05-18T08:49:51.137Z,58.30
2019-05-18T08:52:08.210Z,57.70
2019-05-18T08:53:56.293Z,57.40
2019-05-18T08:55:46.948Z,57.50
2019-05-18T08:57:19.832Z,57.40
2019-05-18T08:58:52.331Z,57.50
2019-05-18T09:00:24.833Z,57.30
2019-05-18T09:02:15.155Z,57.20
2019-05-18T09:03:55.298Z,57.30
2019-05-18T09:05:29.597Z,57.00
2019-05-18T09:07:02.043Z,57.00
2019-05-18T09:10:27.231Z,56.70
2019-05-18T09:11:59.741Z,56.60
2019-05-18T09:13:33.483Z,56.50
2019-05-18T09:15:05.907Z,56.30
2019-05-18T09:16:38.306Z,56.20
2019-05-18T09:18:10.666Z,56.10
2019-05-18T09:19:43.007Z,56.10
2019-05-18T09:21:15.480Z,56.00
2019-05-18T09:22:48.021Z,55.90
2019-05-18T09:24:20.424Z,55.80
2019-05-18T09:25:52.934Z,55.70
2019-05-18T09:27:25.511Z,55.60
2019-05-18T09:28:57.911Z,55.50
2019-05-18T09:30:30.334Z,55.50
2019-05-18T09:32:02.861Z,55.30
2019-05-18T09:33:35.292Z,55.30
2019-05-18T09:35:07.719Z,55.20
2019-05-18T09:36:40.207Z,55.10
2019-05-18T09:38:12.572Z,55.00
2019-05-18T09:39:46.012Z,54.90
2019-05-18T09:41:18.425Z,54.90
2019-05-18T09:42:50.843Z,54.90
2019-05-18T09:44:23.286Z,54.90
2019-05-18T09:45:55.693Z,54.90
2019-05-18T09:47:28.182Z,54.90
2019-05-18T09:49:00.705Z,54.80
2019-05-18T09:50:34.980Z,54.80
2019-05-18T09:52:07.382Z,54.70
2019-05-18T09:53:50.720Z,54.70
2019-05-18T09:55:14.245Z,54.60
2019-05-18T09:57:04.917Z,54.50
2019-05-18T09:58:37.470Z,54.40
2019-05-18T10:00:09.910Z,54.30
2019-05-18T10:01:42.333Z,54.30
2019-05-18T10:03:14.823Z,54.10
2019-05-18T10:04:47.556Z,53.90
2019-05-18T10:06:20.140Z,54.00
2019-05-18T10:07:52.557Z,53.70
2019-05-18T10:09:25.469Z,53.50
2019-05-18T10:10:58.447Z,53.40
2019-05-18T10:12:30.847Z,53.20
2019-05-18T10:14:03.437Z,53.10
2019-05-18T10:15:35.946Z,53.70
2019-05-18T10:17:08.379Z,52.80
2019-05-18T10:18:40.901Z,52.50
2019-05-18T10:20:13.481Z,52.20
2019-05-18T10:21:45.927Z,51.90
2019-05-18T10:23:18.331Z,51.70
2019-05-18T10:24:50.739Z,51.60
2019-05-18T10:26:23.151Z,51.40
2019-05-18T10:27:55.582Z,51.30
2019-05-18T10:29:28.068Z,51.30
2019-05-18T10:31:00.484Z,51.30
2019-05-18T10:32:32.971Z,51.30
2019-05-18T10:34:05.410Z,51.10
2019-05-18T10:35:37.983Z,50.90
2019-05-18T10:37:10.392Z,50.80
2019-05-18T10:38:42.919Z,50.50
2019-05-18T10:40:15.362Z,50.20
2019-05-18T10:41:47.846Z,50.00
2019-05-18T10:43:20.318Z,49.70
2019-05-18T10:44:52.768Z,49.40
2019-05-18T10:46:25.360Z,49.00
2019-05-18T10:47:57.887Z,49.50
2019-05-18T10:49:30.287Z,48.80
2019-05-18T10:51:05.518Z,49.70
2019-05-18T10:52:36.823Z,48.80
2019-05-18T10:54:09.164Z,48.70
2019-05-18T10:55:41.535Z,48.70
2019-05-18T10:57:13.988Z,48.70
2019-05-18T10:58:46.538Z,48.70
2019-05-18T11:00:19.036Z,48.70
2019-05-18T11:01:51.621Z,48.50
2019-05-18T11:03:24.095Z,48.30
2019-05-18T11:04:56.503Z,48.00
2019-05-18T11:06:28.930Z,48.10
2019-05-18T11:08:01.335Z,47.90
2019-05-18T11:09:33.807Z,47.70
2019-05-18T11:11:06.237Z,47.50
2019-05-18T11:12:38.580Z,47.50
2019-05-18T11:14:11.046Z,47.40
2019-05-18T11:15:43.452Z,47.30
2019-05-18T11:17:15.884Z,47.10
2019-05-18T11:18:48.278Z,47.20
2019-05-18T11:20:20.708Z,47.10
2019-05-18T11:21:53.128Z,47.00
2019-05-18T11:23:25.617Z,46.70
2019-05-18T11:24:58.093Z,46.50
2019-05-18T11:26:30.429Z,46.30
2019-05-18T11:28:02.938Z,46.20
2019-05-18T11:29:35.495Z,46.20
2019-05-18T11:31:07.855Z,46.00
2019-05-18T11:32:40.489Z,45.90
2019-05-18T11:34:12.972Z,45.80
2019-05-18T11:35:45.607Z,45.70
2019-05-18T11:37:18.012Z,45.40
2019-05-18T11:38:50.443Z,45.30
2019-05-18T11:40:22.847Z,45.20
2019-05-18T11:41:55.251Z,45.10
2019-05-18T11:43:27.760Z,45.00
2019-05-18T11:45:00.172Z,44.90
2019-05-18T11:46:32.507Z,44.90
2019-05-18T11:48:05.009Z,44.90
2019-05-18T11:49:37.427Z,44.90
2019-05-18T11:51:09.900Z,44.90
2019-05-18T11:52:42.388Z,45.00
2019-05-18T11:54:14.748Z,45.10
2019-05-18T11:55:47.172Z,45.00
2019-05-18T11:57:19.575Z,45.00
2019-05-18T11:58:51.938Z,45.10
2019-05-18T12:00:24.355Z,44.90
2019-05-18T12:01:56.835Z,44.80
2019-05-18T12:03:29.185Z,44.60
2019-05-18T12:05:01.681Z,44.40
2019-05-18T12:06:34.159Z,44.20
2019-05-18T12:08:06.563Z,44.00
2019-05-18T12:09:39.187Z,44.00
2019-05-18T12:11:11.605Z,44.00
2019-05-18T12:12:44.007Z,44.00
2019-05-18T12:14:16.408Z,44.00
2019-05-18T12:15:48.898Z,43.90
2019-05-18T12:17:21.232Z,43.90
2019-05-18T12:18:53.642Z,43.60
2019-05-18T12:20:26.136Z,43.40
2019-05-18T12:21:58.475Z,43.30
2019-05-18T12:23:31.147Z,43.10
2019-05-18T12:25:03.555Z,42.80
2019-05-18T12:26:35.908Z,42.40
2019-05-18T12:28:08.469Z,42.00
2019-05-18T12:29:40.919Z,41.80
2019-05-18T12:31:13.351Z,41.40
2019-05-18T12:32:45.757Z,41.10
2019-05-18T12:34:18.244Z,40.90
2019-05-18T12:35:50.607Z,40.70
2019-05-18T12:37:23.031Z,40.60
2019-05-18T12:38:55.720Z,40.70
2019-05-18T12:40:28.130Z,40.50
2019-05-18T12:42:00.588Z,40.40
2019-05-18T12:43:33.016Z,40.30
2019-05-18T12:45:05.437Z,40.20
2019-05-18T12:46:37.857Z,40.10
2019-05-18T12:48:10.355Z,40.10
2019-05-18T12:49:42.768Z,40.10
2019-05-18T12:51:15.245Z,40.00
2019-05-18T12:52:47.751Z,40.00
2019-05-18T12:54:29.064Z,40.00
2019-05-18T12:55:54.261Z,40.00
2019-05-18T12:57:26.786Z,39.80
2019-05-18T12:58:59.167Z,39.60
2019-05-18T13:00:32.543Z,39.20
2019-05-18T13:02:05.541Z,38.90
2019-05-18T13:03:38.164Z,38.60
2019-05-18T13:05:10.931Z,38.50
2019-05-18T13:06:43.558Z,38.20
2019-05-18T13:08:16.073Z,38.00
2019-05-18T13:09:48.683Z,38.00
2019-05-18T13:11:21.095Z,38.10
2019-05-18T13:12:53.432Z,38.10
2019-05-18T13:14:25.877Z,38.00
2019-05-18T13:15:58.282Z,37.90
2019-05-18T13:17:30.699Z,37.70
2019-05-18T13:19:03.048Z,37.40
2019-05-18T13:20:35.459Z,37.00
2019-05-18T13:22:08.092Z,36.60
2019-05-18T13:23:41.015Z,36.30
2019-05-18T13:25:13.857Z,35.90
2019-05-18T13:26:46.673Z,35.50
2019-05-18T13:28:19.143Z,35.20
2019-05-18T13:29:51.577Z,34.90
2019-05-18T13:31:24.076Z,34.50
2019-05-18T13:32:56.475Z,34.40
2019-05-18T13:34:28.880Z,34.20
2019-05-18T13:36:01.339Z,34.00
2019-05-18T13:37:33.841Z,34.00
2019-05-18T13:39:06.323Z,33.90
2019-05-18T13:40:38.761Z,33.90
2019-05-18T13:42:11.189Z,33.70
2019-05-18T13:43:43.672Z,33.60
2019-05-18T13:45:16.089Z,33.50
2019-05-18T13:46:48.594Z,33.50
2019-05-18T13:48:21.070Z,33.50
2019-05-18T13:49:53.474Z,33.30
2019-05-18T13:51:25.901Z,33.40
2019-05-18T13:52:58.386Z,33.30
2019-05-18T13:54:30.807Z,33.30
2019-05-18T13:56:03.300Z,33.40
2019-05-18T13:57:35.712Z,33.30
2019-05-18T13:59:10.237Z,33.40
2019-05-18T14:00:45.021Z,33.30
2019-05-18T14:02:17.444Z,33.30
2019-05-18T14:03:49.872Z,33.40
2019-05-18T14:05:22.285Z,33.20
2019-05-18T14:06:54.708Z,33.10
2019-05-18T14:08:27.328Z,33.10
2019-05-18T14:09:59.910Z,33.10
2019-05-18T14:11:32.398Z,32.90
2019-05-18T14:13:04.741Z,32.80
2019-05-18T14:14:37.073Z,32.70
2019-05-18T14:16:09.514Z,32.70
2019-05-18T14:17:41.855Z,32.60
2019-05-18T14:19:14.359Z,32.50
2019-05-18T14:20:46.756Z,32.80
2019-05-18T14:22:19.138Z,32.50
2019-05-18T14:23:51.618Z,32.60
2019-05-18T14:25:24.127Z,32.40
2019-05-18T14:26:56.565Z,32.40
2019-05-18T14:28:29.127Z,32.20
2019-05-18T14:30:01.644Z,32.30
2019-05-18T14:31:34.087Z,32.30
2019-05-18T14:33:06.491Z,32.20
2019-05-18T14:34:38.899Z,32.00
2019-05-18T14:36:11.302Z,31.90
2019-05-18T14:37:43.808Z,32.40
2019-05-18T14:39:16.303Z,31.50
2019-05-18T14:40:48.742Z,31.20
2019-05-18T14:42:21.249Z,31.00
2019-05-18T14:43:53.736Z,30.90
2019-05-18T14:45:26.144Z,30.70
2019-05-18T14:46:58.644Z,30.50
2019-05-18T14:48:31.074Z,30.40
2019-05-18T14:50:03.508Z,30.30
2019-05-18T14:51:36.130Z,30.00
2019-05-18T14:53:08.616Z,30.00
2019-05-18T14:54:41.055Z,29.70
2019-05-18T14:56:14.872Z,29.70
2019-05-18T14:57:47.429Z,29.50
2019-05-18T14:59:19.938Z,29.30
2019-05-18T15:00:52.354Z,29.10
2019-05-18T15:02:25.083Z,29.00
2019-05-18T15:03:59.684Z,28.90
2019-05-18T15:05:32.123Z,28.80
2019-05-18T15:07:04.820Z,28.70
2019-05-18T15:08:37.591Z,28.60
2019-05-18T15:10:10.033Z,28.60
2019-05-18T15:11:42.548Z,28.50
2019-05-18T15:13:15.027Z,28.50
2019-05-18T15:14:47.549Z,28.40
2019-05-18T15:16:20.151Z,28.40
2019-05-18T15:17:52.574Z,28.40
2019-05-18T15:19:25.061Z,28.50
2019-05-18T15:20:58.215Z,28.50
2019-05-18T15:22:30.716Z,28.70
2019-05-18T15:24:15.443Z,28.70
2019-05-18T15:25:51.145Z,28.90
2019-05-18T15:27:23.219Z,29.00
2019-05-18T15:28:55.810Z,29.10
2019-05-18T15:30:28.401Z,29.40
2019-05-18T15:32:00.920Z,29.50
2019-05-18T15:33:33.401Z,29.90
2019-05-18T15:35:06.960Z,29.50
2019-05-18T15:36:39.544Z,29.60
2019-05-18T15:38:21.685Z,29.70
2019-05-18T15:43:29.065Z,29.70
2019-05-18T15:45:04.570Z,29.50
2019-05-18T15:46:39.014Z,29.50
2019-05-18T15:48:11.583Z,29.60
2019-05-18T15:49:44.372Z,29.60
2019-05-18T15:51:17.083Z,29.40
2019-05-18T15:52:49.584Z,29.20
2019-05-18T15:54:22.200Z,29.00
2019-05-18T15:56:05.300Z,29.00
2019-05-18T15:57:28.852Z,29.00
2019-05-18T15:59:01.422Z,28.90
2019-05-18T16:00:33.903Z,28.90
2019-05-18T16:02:06.770Z,28.90
2019-05-18T16:03:39.274Z,28.80
2019-05-18T16:05:11.617Z,28.80
2019-05-18T16:06:44.095Z,28.90
2019-05-18T16:08:16.445Z,28.90
2019-05-18T16:09:48.780Z,28.90
2019-05-18T16:11:21.263Z,29.00
2019-05-18T16:12:53.755Z,28.90
2019-05-18T16:14:28.078Z,28.90
2019-05-18T16:16:05.087Z,28.80
2019-05-18T16:17:39.841Z,29.20
2019-05-18T16:19:11.808Z,28.60
2019-05-18T16:20:44.207Z,28.50
2019-05-18T16:22:16.612Z,28.50
2019-05-18T16:23:48.971Z,28.50
2019-05-18T16:25:21.403Z,28.50
2019-05-18T16:26:53.932Z,28.50
2019-05-18T16:28:26.404Z,28.60
2019-05-18T16:29:59.644Z,28.70
2019-05-18T16:31:33.626Z,28.70
2019-05-18T16:33:06.296Z,28.70
2019-05-18T16:34:38.835Z,28.70
2019-05-18T16:37:46.859Z,28.50
2019-05-18T16:39:19.357Z,28.70
2019-05-18T16:40:51.777Z,28.80
2019-05-18T16:42:24.985Z,28.90
2019-05-18T16:43:57.384Z,28.90
2019-05-18T16:45:29.824Z,29.00
2019-05-18T16:47:02.277Z,28.90
2019-05-18T16:48:35.182Z,29.00
2019-05-18T16:50:07.899Z,29.00
2019-05-18T16:51:40.467Z,29.00
2019-05-18T16:53:12.862Z,29.00
2019-05-18T16:54:45.404Z,29.00
2019-05-18T16:56:17.885Z,29.00
2019-05-18T16:57:50.223Z,29.20
2019-05-18T16:59:22.932Z,29.20
2019-05-18T17:00:55.356Z,29.20
2019-05-18T17:02:31.535Z,29.30
2019-05-18T17:04:01.800Z,29.30
2019-05-18T17:05:34.354Z,29.30
2019-05-18T17:07:06.871Z,29.40
2019-05-18T17:08:39.294Z,29.50
2019-05-18T17:10:13.315Z,29.50
2019-05-18T17:11:48.019Z,29.60
2019-05-18T17:13:20.179Z,29.70
2019-05-18T17:14:52.599Z,29.70
2019-05-18T17:16:25.020Z,29.80
2019-05-18T17:17:57.517Z,29.70
2019-05-18T17:19:30.014Z,29.90
2019-05-18T17:21:02.552Z,29.90
2019-05-18T17:22:35.070Z,30.00
2019-05-18T17:24:07.552Z,30.00
2019-05-18T17:25:39.892Z,30.00
2019-05-18T17:27:12.507Z,30.10
2019-05-18T17:28:45.215Z,30.20
2019-05-18T17:30:17.659Z,30.20
2019-05-18T17:31:50.173Z,30.30
2019-05-18T17:33:22.680Z,30.40
2019-05-18T17:34:55.112Z,30.40
2019-05-18T17:36:27.596Z,30.60
2019-05-18T17:38:00.122Z,30.70
2019-05-18T17:39:32.535Z,30.80
2019-05-18T17:41:05.007Z,30.90
2019-05-18T17:42:37.442Z,31.00
2019-05-18T17:44:09.859Z,31.20
2019-05-18T17:45:42.284Z,31.30
2019-05-18T17:47:14.691Z,31.40
2019-05-18T17:48:47.077Z,31.60
2019-05-18T17:50:19.558Z,31.60
2019-05-18T17:51:52.027Z,31.80
2019-05-18T17:53:24.870Z,31.80
2019-05-18T17:54:57.524Z,31.90
2019-05-18T17:56:30.073Z,32.00
2019-05-18T17:58:02.516Z,32.10
2019-05-18T17:59:35.026Z,32.20
2019-05-18T18:01:07.460Z,32.30
2019-05-18T18:02:39.895Z,32.50
2019-05-18T18:04:12.433Z,32.50
2019-05-18T18:05:44.932Z,32.70
2019-05-18T18:07:17.315Z,32.70
2019-05-18T18:08:49.807Z,32.80
2019-05-18T18:10:22.288Z,33.00
2019-05-18T18:11:54.651Z,33.10
2019-05-18T18:13:27.031Z,33.20
2019-05-18T18:15:00.511Z,33.30
2019-05-18T18:16:32.936Z,33.30
2019-05-18T18:18:05.539Z,33.30
2019-05-18T18:19:38.076Z,33.40
2019-05-18T18:21:10.868Z,33.50
2019-05-18T18:22:43.274Z,33.70
2019-05-18T18:24:15.782Z,33.70
2019-05-18T18:25:48.223Z,33.80
2019-05-18T18:27:25.249Z,33.90
2019-05-18T18:28:54.734Z,34.10
2019-05-18T18:30:27.093Z,34.10
2019-05-18T18:31:59.757Z,34.30
2019-05-18T18:33:40.581Z,34.40
2019-05-18T18:35:15.932Z,34.60
2019-05-18T18:36:48.372Z,34.70
2019-05-18T18:38:21.083Z,34.80
2019-05-18T18:39:53.463Z,35.60
2019-05-18T18:41:25.952Z,35.00
2019-05-18T18:42:58.461Z,35.20
2019-05-18T18:44:30.835Z,35.30
2019-05-18T18:46:03.565Z,35.40
2019-05-18T18:47:36.156Z,35.60
2019-05-18T18:49:08.700Z,35.70
2019-05-18T18:50:41.305Z,35.90
2019-05-18T18:52:13.872Z,36.00
2019-05-18T18:53:46.437Z,36.20
2019-05-18T18:55:19.086Z,36.30
2019-05-18T18:56:51.861Z,36.40
2019-05-18T18:58:24.813Z,36.60
2019-05-18T18:59:57.233Z,36.70
2019-05-18T19:01:29.733Z,36.80
2019-05-18T19:03:02.220Z,36.90
2019-05-18T19:04:35.151Z,37.00
2019-05-18T19:06:07.558Z,37.90
2019-05-18T19:07:39.980Z,37.30
2019-05-18T19:09:12.386Z,37.40
2019-05-18T19:10:45.083Z,37.60
2019-05-18T19:12:17.502Z,37.70
2019-05-18T19:13:49.900Z,37.80
2019-05-18T19:15:22.445Z,37.80
2019-05-18T19:16:54.927Z,37.90
2019-05-18T19:18:27.409Z,38.00
2019-05-18T19:19:59.818Z,38.20
2019-05-18T19:21:32.255Z,38.20
2019-05-18T19:23:04.835Z,38.50
2019-05-18T19:24:37.240Z,38.50
2019-05-18T19:26:09.654Z,38.70
2019-05-18T19:27:54.012Z,38.70
2019-05-18T19:29:16.252Z,38.80
2019-05-18T19:30:48.696Z,39.00
2019-05-18T19:32:21.461Z,39.00
2019-05-18T19:33:54.271Z,39.10
2019-05-18T19:35:27.059Z,39.30
2019-05-18T19:36:59.562Z,39.40
2019-05-18T19:38:32.156Z,39.60
2019-05-18T19:40:04.516Z,39.80
2019-05-18T19:41:37.081Z,39.90
2019-05-18T19:43:09.936Z,39.90
2019-05-18T19:44:42.531Z,40.00
2019-05-18T19:46:14.964Z,40.10
2019-05-18T19:47:47.357Z,40.20
2019-05-18T19:49:20.063Z,40.40
2019-05-18T19:50:52.543Z,40.40
2019-05-18T19:52:25.023Z,40.60
2019-05-18T19:53:57.534Z,40.50
2019-05-18T19:55:30.081Z,40.50
2019-05-18T19:57:02.863Z,40.70
2019-05-18T19:58:36.043Z,40.70
2019-05-18T20:00:08.538Z,40.80
2019-05-18T20:01:41.006Z,40.90
2019-05-18T20:03:13.418Z,40.80
2019-05-18T20:05:03.908Z,40.80
2019-05-18T20:06:19.941Z,41.00
2019-05-18T20:07:52.279Z,41.70
2019-05-18T20:09:24.708Z,41.10
2019-05-18T20:10:57.208Z,41.10
2019-05-18T20:12:30.091Z,41.20